Time;durP1;ratioP1;P1;durP2;ratioP2;P2;SDS_P1;SDS_P2;PMS_P1;PMS_P2;Temp;Humidity;BMP_temperature;BMP_pressure;BME280_temperature;BME280_humidity;BME280_pressure;Samples;Min_cycle;Max_cycle;Signal;HPM_P1;HPM_P2
2022/11/27 00:00:45;;;;;;;0.60;0.57;;;;;;;;;;1840784;75;21036;-57
2022/11/27 00:03:11;;;;;;;0.60;0.50;;;;;;;;;;1844076;75;21053;-56
2022/11/27 00:05:38;;;;;;;0.87;0.50;;;;;;;;;;1847834;75;21614;-56
2022/11/27 00:08:04;;;;;;;0.60;0.50;;;;;;;;;;1847063;75;21073;-56
2022/11/27 00:10:31;;;;;;;0.60;0.50;;;;;;;;;;1846525;75;22423;-56
2022/11/27 00:12:57;;;;;;;0.90;0.60;;;;;;;;;;1844558;75;21496;-57
2022/11/27 00:15:23;;;;;;;0.70;0.50;;;;;;;;;;1843117;75;21096;-56
2022/11/27 00:23:45;;;;;;;1.83;0.70;;;;;;;;;;1674578;83;21530;-50
2022/11/27 00:26:11;;;;;;;1.20;0.60;;;;;;;;;;1674503;84;21975;-50
2022/11/27 00:28:38;;;;;;;0.70;0.60;;;;;;;;;;1668895;84;21032;-48
2022/11/27 00:31:18;;;;;;;0.80;0.70;;;;;;;;;;1666572;84;21191;-45
2022/11/27 00:33:45;;;;;;;0.80;0.70;;;;;;;;;;1667289;84;21040;-50
2022/11/27 00:36:12;;;;;;;1.80;0.60;;;;;;;;;;1669637;84;21021;-45
2022/11/27 00:38:38;;;;;;;0.70;0.60;;;;;;;;;;1671554;84;22654;-46
2022/11/27 00:41:10;;;;;;;0.80;0.60;;;;;;;;;;1672423;84;21823;-47
2022/11/27 00:43:36;;;;;;;0.70;0.60;;;;;;;;;;1673722;84;21009;-46
2022/11/27 00:46:03;;;;;;;0.93;0.93;;;;;;;;;;1672423;84;21068;-46
2022/11/27 00:48:29;;;;;;;1.07;0.70;;;;;;;;;;1670570;84;21098;-48
2022/11/27 00:51:05;;;;;;;0.60;0.50;;;;;;;;;;1668999;84;22644;-46
2022/11/27 00:53:31;;;;;;;1.20;0.57;;;;;;;;;;1665608;84;21075;-49
2022/11/27 00:55:58;;;;;;;1.13;0.60;;;;;;;;;;1668957;84;21044;-46
2022/11/27 00:58:24;;;;;;;0.97;0.60;;;;;;;;;;1670361;84;21379;-47
2022/11/27 01:01:02;;;;;;;0.60;0.50;;;;;;;;;;1668162;84;21115;-50
2022/11/27 01:03:29;;;;;;;0.70;0.60;;;;;;;;;;1661252;84;22070;-45
2022/11/27 01:05:56;;;;;;;0.60;0.50;;;;;;;;;;1668269;84;21107;-48
2022/11/27 01:08:22;;;;;;;0.77;0.60;;;;;;;;;;1662593;84;21340;-49
2022/11/27 01:10:53;;;;;;;0.87;0.67;;;;;;;;;;1665896;84;21517;-48
2022/11/27 01:13:22;;;;;;;0.80;0.60;;;;;;;;;;1668032;84;21017;-50
2022/11/27 01:16:01;;;;;;;1.23;0.80;;;;;;;;;;1668632;84;21436;-47
2022/11/27 01:18:27;;;;;;;0.90;0.60;;;;;;;;;;1664684;84;21040;-50
2022/11/27 01:20:53;;;;;;;0.80;0.60;;;;;;;;;;1677831;83;21041;-47
2022/11/27 01:23:21;;;;;;;0.67;0.67;;;;;;;;;;1687791;83;21011;-46
2022/11/27 01:25:47;;;;;;;1.07;0.70;;;;;;;;;;1683350;83;21369;-50
2022/11/27 01:28:14;;;;;;;0.70;0.60;;;;;;;;;;1680279;83;22018;-48
2022/11/27 01:30:41;;;;;;;0.70;0.60;;;;;;;;;;1679263;83;21337;-50
2022/11/27 01:33:07;;;;;;;0.87;0.70;;;;;;;;;;1686705;83;21054;-48
2022/11/27 01:35:34;;;;;;;2.20;0.67;;;;;;;;;;1684065;83;21080;-47
2022/11/27 01:38:00;;;;;;;2.97;0.70;;;;;;;;;;1683330;83;21039;-48
2022/11/27 01:40:26;;;;;;;1.10;0.73;;;;;;;;;;1686704;83;21818;-47
2022/11/27 01:42:53;;;;;;;0.90;0.80;;;;;;;;;;1685167;83;21043;-47
2022/11/27 01:45:19;;;;;;;1.10;0.63;;;;;;;;;;1680173;83;21104;-50
2022/11/27 01:47:53;;;;;;;0.70;0.70;;;;;;;;;;1687651;83;21579;-45
2022/11/27 01:50:22;;;;;;;1.35;0.78;;;;;;;;;;1687239;83;21084;-49
2022/11/27 01:52:52;;;;;;;0.90;0.80;;;;;;;;;;1684712;83;21807;-49
2022/11/27 01:55:24;;;;;;;0.90;0.77;;;;;;;;;;1680735;83;22386;-47
2022/11/27 01:57:54;;;;;;;0.80;0.60;;;;;;;;;;1686108;83;20960;-47
2022/11/27 02:00:20;;;;;;;2.30;0.63;;;;;;;;;;1690204;83;20947;-48
2022/11/27 02:02:46;;;;;;;1.57;0.70;;;;;;;;;;1683870;83;21079;-51
2022/11/27 02:05:15;;;;;;;0.73;0.70;;;;;;;;;;1682084;83;21806;-48
2022/11/27 02:07:41;;;;;;;1.40;0.60;;;;;;;;;;1688027;83;21023;-52
2022/11/27 02:10:08;;;;;;;0.80;0.60;;;;;;;;;;1686458;83;21031;-49
2022/11/27 02:12:53;;;;;;;0.67;0.60;;;;;;;;;;1684055;83;21076;-52
2022/11/27 02:15:26;;;;;;;1.35;0.65;;;;;;;;;;1688606;83;21081;-50
2022/11/27 02:18:04;;;;;;;1.03;0.80;;;;;;;;;;1682679;83;21920;-50
2022/11/27 02:20:38;;;;;;;1.00;0.90;;;;;;;;;;1687252;83;22051;-48
2022/11/27 02:23:30;;;;;;;0.90;0.70;;;;;;;;;;1682230;82;21105;-50
2022/11/27 02:26:12;;;;;;;1.10;0.73;;;;;;;;;;1666176;83;21702;-49
2022/11/27 02:29:03;;;;;;;1.23;0.73;;;;;;;;;;1668815;83;21130;-52
2022/11/27 02:31:50;;;;;;;0.90;0.70;;;;;;;;;;1658160;84;21784;-50
2022/11/27 02:34:20;;;;;;;0.80;0.70;;;;;;;;;;1585944;86;20993;-50
2022/11/27 02:36:55;;;;;;;0.80;0.70;;;;;;;;;;1671182;83;20987;-49
2022/11/27 02:39:24;;;;;;;1.20;0.90;;;;;;;;;;1675223;83;21237;-48
2022/11/27 02:41:56;;;;;;;1.00;0.70;;;;;;;;;;1673903;83;21104;-48
2022/11/27 02:44:22;;;;;;;1.30;0.70;;;;;;;;;;1677321;83;21742;-49
2022/11/27 02:46:48;;;;;;;1.20;1.00;;;;;;;;;;1677759;83;20980;-49
2022/11/27 02:49:16;;;;;;;1.00;0.80;;;;;;;;;;1676186;83;21560;-52
2022/11/27 02:51:45;;;;;;;1.43;0.80;;;;;;;;;;1675580;82;21234;-52
2022/11/27 02:54:15;;;;;;;1.00;0.80;;;;;;;;;;1675236;83;21185;-50
2022/11/27 02:56:41;;;;;;;0.87;0.73;;;;;;;;;;1676883;83;22791;-50
2022/11/27 02:59:09;;;;;;;0.67;0.67;;;;;;;;;;1670107;83;21382;-52
2022/11/27 03:01:39;;;;;;;0.70;0.53;;;;;;;;;;1675947;83;21120;-51
2022/11/27 03:04:10;;;;;;;1.37;0.70;;;;;;;;;;1674128;83;21141;-48
2022/11/27 03:06:40;;;;;;;1.20;0.70;;;;;;;;;;1671377;83;21046;-49
2022/11/27 03:09:09;;;;;;;1.90;0.60;;;;;;;;;;1672803;83;22520;-51
2022/11/27 03:11:35;;;;;;;0.80;0.60;;;;;;;;;;1669551;83;21061;-49
2022/11/27 03:14:04;;;;;;;1.20;0.60;;;;;;;;;;1673629;83;21059;-49
2022/11/27 03:16:39;;;;;;;1.27;0.70;;;;;;;;;;1675911;83;21055;-50
2022/11/27 03:19:15;;;;;;;1.37;0.73;;;;;;;;;;1672166;83;21223;-52
2022/11/27 03:22:54;;;;;;;0.97;0.70;;;;;;;;;;1791363;78;27331;-51
2022/11/27 03:25:21;;;;;;;1.40;0.83;;;;;;;;;;1773062;78;21581;-52
2022/11/27 03:27:51;;;;;;;2.23;0.80;;;;;;;;;;1778457;79;21831;-49
2022/11/27 03:30:17;;;;;;;1.43;0.90;;;;;;;;;;1776025;79;21056;-49
2022/11/27 03:32:43;;;;;;;2.37;0.90;;;;;;;;;;1773548;79;21045;-47
2022/11/27 03:35:11;;;;;;;0.93;0.70;;;;;;;;;;1773126;78;21025;-50
2022/11/27 03:37:37;;;;;;;1.53;0.80;;;;;;;;;;1775263;79;21084;-51
2022/11/27 03:40:04;;;;;;;0.87;0.77;;;;;;;;;;1774758;79;21864;-51
2022/11/27 03:42:53;;;;;;;1.33;0.63;;;;;;;;;;1752381;79;21454;-51
2022/11/27 03:45:49;;;;;;;1.43;0.80;;;;;;;;;;1777490;79;21400;-49
2022/11/27 03:48:24;;;;;;;0.90;0.67;;;;;;;;;;1771887;79;21033;-47
2022/11/27 03:51:12;;;;;;;1.53;0.83;;;;;;;;;;1774426;79;22379;-48
2022/11/27 03:54:09;;;;;;;0.90;0.70;;;;;;;;;;1772340;79;21961;-49
2022/11/27 03:56:38;;;;;;;1.03;0.80;;;;;;;;;;1773342;80;21089;-47
2022/11/27 03:59:13;;;;;;;1.37;0.70;;;;;;;;;;1773782;79;21029;-47
2022/11/27 04:01:40;;;;;;;1.30;0.90;;;;;;;;;;1774753;78;21040;-48
2022/11/27 04:04:06;;;;;;;1.13;0.73;;;;;;;;;;1774213;79;21033;-48
2022/11/27 04:06:32;;;;;;;1.43;0.80;;;;;;;;;;1775744;79;21847;-51
2022/11/27 04:08:59;;;;;;;2.13;0.70;;;;;;;;;;1771801;79;21049;-49
2022/11/27 04:11:26;;;;;;;0.83;0.70;;;;;;;;;;1775580;78;21045;-48
2022/11/27 04:13:52;;;;;;;0.90;0.67;;;;;;;;;;1770856;79;21321;-48
2022/11/27 04:16:18;;;;;;;1.63;0.80;;;;;;;;;;1770756;79;21467;-47
2022/11/27 04:18:44;;;;;;;1.10;0.70;;;;;;;;;;1780189;79;21833;-46
2022/11/27 04:21:11;;;;;;;1.50;0.73;;;;;;;;;;1766778;79;21112;-48
2022/11/27 04:23:38;;;;;;;1.60;0.87;;;;;;;;;;1750181;80;21040;-51
2022/11/27 04:26:04;;;;;;;1.07;0.87;;;;;;;;;;1743231;80;21076;-48
2022/11/27 04:28:30;;;;;;;1.00;0.73;;;;;;;;;;1747103;80;21429;-47
2022/11/27 04:30:57;;;;;;;3.43;1.10;;;;;;;;;;1739418;80;21854;-47
2022/11/27 04:33:23;;;;;;;2.33;1.00;;;;;;;;;;1747329;80;21086;-47
2022/11/27 04:35:50;;;;;;;2.80;0.90;;;;;;;;;;1750251;80;21034;-48
2022/11/27 04:38:17;;;;;;;1.10;0.90;;;;;;;;;;1745051;80;21189;-49
2022/11/27 04:40:43;;;;;;;2.10;0.80;;;;;;;;;;1747863;80;21030;-49
2022/11/27 04:43:09;;;;;;;1.13;0.80;;;;;;;;;;1745441;80;21860;-50
2022/11/27 04:45:35;;;;;;;1.47;0.90;;;;;;;;;;1743357;80;21455;-49
2022/11/27 04:48:02;;;;;;;1.10;0.80;;;;;;;;;;1745246;80;21099;-48
2022/11/27 04:50:28;;;;;;;1.00;0.90;;;;;;;;;;1746980;80;21251;-47
2022/11/27 04:52:55;;;;;;;1.30;0.77;;;;;;;;;;1745236;80;21087;-48
2022/11/27 04:55:22;;;;;;;1.40;0.90;;;;;;;;;;1750012;80;21851;-51
2022/11/27 04:57:48;;;;;;;1.57;0.80;;;;;;;;;;1703575;82;21095;-47
2022/11/27 05:00:15;;;;;;;1.17;0.83;;;;;;;;;;1745581;80;22683;-47
2022/11/27 05:02:41;;;;;;;1.20;0.90;;;;;;;;;;1742681;80;21100;-46
2022/11/27 05:05:09;;;;;;;1.00;0.80;;;;;;;;;;1747171;80;21094;-47
2022/11/27 05:07:35;;;;;;;1.07;0.90;;;;;;;;;;1746588;80;22839;-50
2022/11/27 05:10:03;;;;;;;1.30;0.90;;;;;;;;;;1746645;80;21029;-47
2022/11/27 05:12:29;;;;;;;1.00;0.70;;;;;;;;;;1744418;80;21520;-48
2022/11/27 05:14:56;;;;;;;1.20;0.90;;;;;;;;;;1746810;80;21075;-50
2022/11/27 05:17:22;;;;;;;1.77;0.80;;;;;;;;;;1744353;80;21043;-47
2022/11/27 05:19:48;;;;;;;1.47;0.90;;;;;;;;;;1744998;80;21765;-49
2022/11/27 05:22:14;;;;;;;3.00;1.20;;;;;;;;;;1743093;80;21032;-48
2022/11/27 05:24:40;;;;;;;1.30;0.90;;;;;;;;;;1737012;80;21087;-51
2022/11/27 05:27:06;;;;;;;1.23;0.90;;;;;;;;;;1740884;80;21449;-50
2022/11/27 05:29:33;;;;;;;1.17;0.90;;;;;;;;;;1739232;80;21154;-47
2022/11/27 05:31:59;;;;;;;1.77;1.20;;;;;;;;;;1736263;80;21444;-51
2022/11/27 05:34:25;;;;;;;1.83;1.30;;;;;;;;;;1737412;80;21066;-48
2022/11/27 05:36:52;;;;;;;1.23;1.07;;;;;;;;;;1738732;80;21039;-51
2022/11/27 05:39:18;;;;;;;1.27;1.17;;;;;;;;;;1738864;80;21111;-47
2022/11/27 05:41:44;;;;;;;1.00;0.80;;;;;;;;;;1738156;80;21488;-49
2022/11/27 05:44:12;;;;;;;2.17;1.17;;;;;;;;;;1734274;80;23272;-47
2022/11/27 05:46:38;;;;;;;2.53;1.13;;;;;;;;;;1739553;80;21539;-48
2022/11/27 05:49:05;;;;;;;2.63;1.07;;;;;;;;;;1737441;80;21012;-49
2022/11/27 05:51:31;;;;;;;2.27;1.30;;;;;;;;;;1738622;80;21766;-47
2022/11/27 05:53:57;;;;;;;1.20;1.10;;;;;;;;;;1739899;80;21678;-51
2022/11/27 05:56:24;;;;;;;1.20;0.90;;;;;;;;;;1737999;80;21825;-47
2022/11/27 05:58:50;;;;;;;1.50;1.00;;;;;;;;;;1741929;80;21119;-47
2022/11/27 06:01:17;;;;;;;1.60;1.00;;;;;;;;;;1735748;80;21115;-48
2022/11/27 06:03:43;;;;;;;3.27;1.33;;;;;;;;;;1734056;80;21094;-47
2022/11/27 06:06:15;;;;;;;1.30;1.00;;;;;;;;;;1738268;80;21613;-48
2022/11/27 06:08:41;;;;;;;1.27;0.97;;;;;;;;;;1737093;80;21775;-46
2022/11/27 06:11:09;;;;;;;1.50;1.00;;;;;;;;;;1729326;80;21451;-50
2022/11/27 06:13:35;;;;;;;1.30;1.10;;;;;;;;;;1736641;80;21059;-50
2022/11/27 06:16:08;;;;;;;1.80;1.17;;;;;;;;;;1741194;80;21830;-48
2022/11/27 06:18:34;;;;;;;1.87;1.20;;;;;;;;;;1735359;80;21114;-47
2022/11/27 06:21:00;;;;;;;1.70;1.10;;;;;;;;;;1733472;80;21955;-46
2022/11/27 06:23:26;;;;;;;1.30;1.10;;;;;;;;;;1737607;80;21075;-51
2022/11/27 06:25:52;;;;;;;1.70;0.90;;;;;;;;;;1740637;80;21050;-46
2022/11/27 06:28:19;;;;;;;1.47;1.20;;;;;;;;;;1742800;80;21098;-51
2022/11/27 06:30:45;;;;;;;1.27;0.90;;;;;;;;;;1738152;80;21020;-51
2022/11/27 06:33:12;;;;;;;1.60;1.00;;;;;;;;;;1704170;82;21837;-47
2022/11/27 06:35:38;;;;;;;1.17;0.83;;;;;;;;;;1691291;82;21042;-48
2022/11/27 06:38:04;;;;;;;2.37;1.60;;;;;;;;;;1686036;82;21550;-47
2022/11/27 06:40:30;;;;;;;4.50;1.20;;;;;;;;;;1682867;83;21679;-47
2022/11/27 06:42:57;;;;;;;2.67;1.50;;;;;;;;;;1689777;82;21108;-48
2022/11/27 06:45:23;;;;;;;1.93;1.40;;;;;;;;;;1689927;82;21840;-47
2022/11/27 06:47:49;;;;;;;1.70;1.37;;;;;;;;;;1693473;82;21057;-50
2022/11/27 06:50:16;;;;;;;1.33;1.20;;;;;;;;;;1688016;82;21108;-49
2022/11/27 06:52:42;;;;;;;2.03;1.53;;;;;;;;;;1688472;82;21562;-46
2022/11/27 06:55:09;;;;;;;1.77;1.23;;;;;;;;;;1678679;83;21045;-46
2022/11/27 06:58:45;;;;;;;2.40;2.00;;;;;;;;;;1774107;78;27946;-46
2022/11/27 07:01:13;;;;;;;3.37;1.50;;;;;;;;;;1745547;80;21092;-48
2022/11/27 07:03:39;;;;;;;2.70;1.60;;;;;;;;;;1743192;80;21858;-47
2022/11/27 07:06:07;;;;;;;2.83;1.53;;;;;;;;;;1748428;80;21459;-50
2022/11/27 07:08:34;;;;;;;1.63;1.30;;;;;;;;;;1743730;80;21494;-45
2022/11/27 07:11:05;;;;;;;7.13;1.57;;;;;;;;;;1742666;80;21081;-49
2022/11/27 07:13:32;;;;;;;3.30;1.83;;;;;;;;;;1749329;80;21021;-47
2022/11/27 07:16:00;;;;;;;4.10;2.00;;;;;;;;;;1744037;80;21834;-46
2022/11/27 07:18:29;;;;;;;4.30;2.13;;;;;;;;;;1746713;80;21066;-46
2022/11/27 07:20:55;;;;;;;3.37;1.43;;;;;;;;;;1737829;80;21157;-45
2022/11/27 07:23:21;;;;;;;1.80;1.50;;;;;;;;;;1728484;80;21041;-46
2022/11/27 07:25:47;;;;;;;2.67;1.47;;;;;;;;;;1725381;80;21140;-50
2022/11/27 07:28:14;;;;;;;1.90;1.50;;;;;;;;;;1724321;80;22818;-46
2022/11/27 07:30:41;;;;;;;2.20;1.40;;;;;;;;;;1729103;80;21065;-48
2022/11/27 07:33:08;;;;;;;2.10;1.30;;;;;;;;;;1726665;80;21084;-48
2022/11/27 07:35:35;;;;;;;1.97;1.60;;;;;;;;;;1733538;80;21060;-50
2022/11/27 07:38:01;;;;;;;1.50;1.33;;;;;;;;;;1730767;80;21092;-48
2022/11/27 07:40:27;;;;;;;1.97;1.27;;;;;;;;;;1731113;80;21407;-48
2022/11/27 07:42:53;;;;;;;2.27;1.60;;;;;;;;;;1721934;80;21080;-47
2022/11/27 07:45:20;;;;;;;2.23;1.37;;;;;;;;;;1730447;80;21418;-47
2022/11/27 07:47:46;;;;;;;1.77;1.50;;;;;;;;;;1724820;80;21078;-47
2022/11/27 07:50:13;;;;;;;1.97;1.40;;;;;;;;;;1722847;80;21022;-51
2022/11/27 07:52:40;;;;;;;2.47;1.50;;;;;;;;;;1733837;80;21997;-49
2022/11/27 07:55:07;;;;;;;1.87;1.40;;;;;;;;;;1728594;80;21754;-46
2022/11/27 07:57:34;;;;;;;1.40;1.10;;;;;;;;;;1725192;80;21088;-50
2022/11/27 08:00:00;;;;;;;1.53;1.40;;;;;;;;;;1718828;81;21695;-47
2022/11/27 08:02:27;;;;;;;2.10;1.57;;;;;;;;;;1720719;81;21118;-47
2022/11/27 08:04:53;;;;;;;3.10;1.80;;;;;;;;;;1719784;80;22443;-46
2022/11/27 08:07:20;;;;;;;1.57;1.30;;;;;;;;;;1718601;81;21511;-46
2022/11/27 08:09:46;;;;;;;3.30;2.20;;;;;;;;;;1706989;82;21057;-46
2022/11/27 08:12:12;;;;;;;2.80;1.40;;;;;;;;;;1712760;81;21120;-46
2022/11/27 08:14:38;;;;;;;1.50;1.23;;;;;;;;;;1715018;81;22146;-52
2022/11/27 08:17:05;;;;;;;2.57;1.50;;;;;;;;;;1717885;81;22560;-47
2022/11/27 08:19:31;;;;;;;2.00;1.30;;;;;;;;;;1713170;81;21488;-50
2022/11/27 08:21:57;;;;;;;2.30;2.10;;;;;;;;;;1717614;81;21654;-49
2022/11/27 08:24:23;;;;;;;2.47;1.67;;;;;;;;;;1712469;81;21046;-46
2022/11/27 08:26:51;;;;;;;1.90;1.23;;;;;;;;;;1717447;81;22439;-50
2022/11/27 08:29:17;;;;;;;2.20;1.30;;;;;;;;;;1713720;81;22047;-49
2022/11/27 08:31:43;;;;;;;1.67;1.30;;;;;;;;;;1666391;83;21112;-48
2022/11/27 08:34:09;;;;;;;1.70;1.53;;;;;;;;;;1717849;81;21070;-47
2022/11/27 08:36:35;;;;;;;1.87;1.53;;;;;;;;;;1712117;81;21671;-49
2022/11/27 08:39:02;;;;;;;2.53;1.53;;;;;;;;;;1717613;81;21062;-48
2022/11/27 08:41:28;;;;;;;4.23;2.13;;;;;;;;;;1721632;81;21801;-50
2022/11/27 08:43:55;;;;;;;2.13;1.50;;;;;;;;;;1713720;81;21080;-47
2022/11/27 08:46:21;;;;;;;1.90;1.43;;;;;;;;;;1715042;81;21175;-50
2022/11/27 08:48:47;;;;;;;2.40;2.17;;;;;;;;;;1714003;81;21439;-51
2022/11/27 08:51:15;;;;;;;1.53;1.40;;;;;;;;;;1717904;81;21058;-47
2022/11/27 08:53:44;;;;;;;2.50;1.50;;;;;;;;;;1716228;81;21827;-46
2022/11/27 08:56:17;;;;;;;2.43;1.50;;;;;;;;;;1716673;81;21015;-51
2022/11/27 08:58:43;;;;;;;3.73;2.43;;;;;;;;;;1720645;80;21006;-46
2022/11/27 09:01:12;;;;;;;3.60;2.27;;;;;;;;;;1721699;80;22250;-47
2022/11/27 09:03:38;;;;;;;5.27;2.67;;;;;;;;;;1722482;80;21136;-49
2022/11/27 09:06:06;;;;;;;3.67;1.70;;;;;;;;;;1717987;80;22391;-48
2022/11/27 09:08:33;;;;;;;5.23;1.83;;;;;;;;;;1725791;80;21085;-47
2022/11/27 09:11:00;;;;;;;2.70;1.40;;;;;;;;;;1720414;80;21100;-47
2022/11/27 09:13:27;;;;;;;2.47;1.50;;;;;;;;;;1718348;80;21050;-47
2022/11/27 09:15:55;;;;;;;2.87;1.90;;;;;;;;;;1719900;80;21051;-46
2022/11/27 09:18:21;;;;;;;3.43;1.33;;;;;;;;;;1702420;80;22021;-47
2022/11/27 09:21:00;;;;;;;3.30;1.37;;;;;;;;;;1718208;80;21057;-49
2022/11/27 09:23:27;;;;;;;1.80;1.27;;;;;;;;;;1728236;80;20971;-47
2022/11/27 09:25:55;;;;;;;2.27;1.57;;;;;;;;;;1723110;80;21725;-46
2022/11/27 09:28:22;;;;;;;3.77;1.77;;;;;;;;;;1723738;81;21090;-49
2022/11/27 09:30:48;;;;;;;1.90;1.60;;;;;;;;;;1725104;80;22406;-47
2022/11/27 09:33:14;;;;;;;4.43;1.83;;;;;;;;;;1699455;80;21058;-47
2022/11/27 09:35:41;;;;;;;1.53;1.33;;;;;;;;;;1726260;80;21037;-48
2022/11/27 09:38:07;;;;;;;2.17;1.30;;;;;;;;;;1725506;80;21673;-48
2022/11/27 09:40:33;;;;;;;3.03;1.50;;;;;;;;;;1724006;80;21259;-48
2022/11/27 09:43:07;;;;;;;2.47;1.83;;;;;;;;;;1723800;80;21828;-47
2022/11/27 09:45:30;;;;;;;2.67;2.00;;;;;;;;;;1721652;80;21715;-48
2022/11/27 09:48:01;;;;;;;2.27;1.33;;;;;;;;;;1722752;80;20999;-48
2022/11/27 09:50:30;;;;;;;1.77;1.30;;;;;;;;;;1722467;80;21506;-51
2022/11/27 09:53:15;;;;;;;4.20;1.67;;;;;;;;;;1721250;80;22473;-47
2022/11/27 09:55:43;;;;;;;2.42;1.45;;;;;;;;;;1720708;80;22604;-47
2022/11/27 09:58:24;;;;;;;2.40;1.97;;;;;;;;;;1719762;80;21268;-51
2022/11/27 10:00:51;;;;;;;2.67;1.73;;;;;;;;;;1715629;81;22458;-49
2022/11/27 10:03:23;;;;;;;2.37;1.37;;;;;;;;;;1711412;81;21125;-48
2022/11/27 10:06:25;;;;;;;2.90;1.60;;;;;;;;;;1659814;84;21474;-49
2022/11/27 10:09:01;;;;;;;2.23;1.57;;;;;;;;;;1708980;81;21947;-52
2022/11/27 10:11:52;;;;;;;2.43;1.93;;;;;;;;;;1713286;81;21042;-48
2022/11/27 10:14:25;;;;;;;2.63;1.40;;;;;;;;;;1715723;81;21054;-52
2022/11/27 10:16:58;;;;;;;1.73;1.60;;;;;;;;;;1715072;81;21097;-53
2022/11/27 10:19:46;;;;;;;2.17;1.47;;;;;;;;;;1716015;81;21547;-53
2022/11/27 10:22:31;;;;;;;1.60;1.00;;;;;;;;;;1715464;81;21928;-51
2022/11/27 10:25:04;;;;;;;1.40;1.00;;;;;;;;;;1710730;81;21139;-53
2022/11/27 10:27:34;;;;;;;1.07;0.93;;;;;;;;;;1716109;81;21085;-51
2022/11/27 10:30:00;;;;;;;2.30;1.23;;;;;;;;;;1714247;81;21515;-48
2022/11/27 10:32:29;;;;;;;1.50;1.20;;;;;;;;;;1712552;81;21635;-52
2022/11/27 10:35:01;;;;;;;1.67;1.13;;;;;;;;;;1715659;81;22009;-51
2022/11/27 10:37:34;;;;;;;1.53;1.00;;;;;;;;;;1717992;81;21034;-49
2022/11/27 10:40:04;;;;;;;1.87;1.50;;;;;;;;;;1650011;81;21101;-49
2022/11/27 10:42:52;;;;;;;1.47;1.10;;;;;;;;;;1710759;81;21068;-48
2022/11/27 10:45:43;;;;;;;1.60;1.00;;;;;;;;;;1712601;81;21101;-48
2022/11/27 10:48:10;;;;;;;1.20;0.93;;;;;;;;;;1710034;81;21888;-50
2022/11/27 10:50:37;;;;;;;1.33;1.00;;;;;;;;;;1717003;81;21036;-51
2022/11/27 10:53:09;;;;;;;1.40;1.20;;;;;;;;;;1714639;81;21206;-50
2022/11/27 10:55:48;;;;;;;1.30;1.20;;;;;;;;;;1715311;81;21077;-49
2022/11/27 10:58:32;;;;;;;1.30;1.13;;;;;;;;;;1716158;81;21666;-48
2022/11/27 11:01:03;;;;;;;1.63;1.00;;;;;;;;;;1717192;81;21965;-53
2022/11/27 11:03:29;;;;;;;1.90;1.00;;;;;;;;;;1718318;81;21098;-51
2022/11/27 11:06:04;;;;;;;2.00;0.90;;;;;;;;;;1712097;81;21713;-52
2022/11/27 11:08:30;;;;;;;0.98;0.80;;;;;;;;;;1713581;81;21045;-52
2022/11/27 11:11:02;;;;;;;2.10;1.20;;;;;;;;;;1715613;81;21078;-54
2022/11/27 11:13:30;;;;;;;1.40;1.00;;;;;;;;;;1715570;81;21780;-53
2022/11/27 11:16:06;;;;;;;1.80;0.83;;;;;;;;;;1716245;81;21057;-52
2022/11/27 11:18:34;;;;;;;1.10;0.83;;;;;;;;;;1713817;81;21495;-53
2022/11/27 11:21:05;;;;;;;2.40;0.90;;;;;;;;;;1700861;81;21595;-53
2022/11/27 11:23:35;;;;;;;1.93;1.13;;;;;;;;;;1700456;82;21628;-52
2022/11/27 11:26:05;;;;;;;1.37;0.80;;;;;;;;;;1719576;81;22565;-53
2022/11/27 11:28:33;;;;;;;1.40;1.10;;;;;;;;;;1720900;81;21092;-53
2022/11/27 11:31:02;;;;;;;1.17;0.97;;;;;;;;;;1714640;81;21562;-53
2022/11/27 11:33:29;;;;;;;3.13;1.57;;;;;;;;;;1712614;81;21073;-52
2022/11/27 11:35:58;;;;;;;2.13;1.40;;;;;;;;;;1712511;81;21216;-53
2022/11/27 11:38:28;;;;;;;2.13;1.77;;;;;;;;;;1713342;81;21858;-53
2022/11/27 11:41:00;;;;;;;1.47;1.37;;;;;;;;;;1712952;81;21045;-51
2022/11/27 11:43:29;;;;;;;1.60;1.20;;;;;;;;;;1713289;81;21132;-51
2022/11/27 11:46:06;;;;;;;1.50;1.27;;;;;;;;;;1713026;81;21409;-53
2022/11/27 11:48:32;;;;;;;1.43;1.20;;;;;;;;;;1717464;81;21087;-53
2022/11/27 11:51:02;;;;;;;1.53;1.20;;;;;;;;;;1712849;81;21740;-53
2022/11/27 11:53:40;;;;;;;2.30;1.20;;;;;;;;;;1714882;81;21764;-51
2022/11/27 11:56:19;;;;;;;1.83;1.00;;;;;;;;;;1712645;81;21045;-52
2022/11/27 11:58:59;;;;;;;1.50;1.00;;;;;;;;;;1714469;80;21026;-52
2022/11/27 12:01:36;;;;;;;1.53;1.30;;;;;;;;;;1695459;82;21567;-53
2022/11/27 12:04:16;;;;;;;1.23;1.13;;;;;;;;;;1719486;80;23019;-52
2022/11/27 12:06:58;;;;;;;1.63;1.00;;;;;;;;;;1723942;81;21097;-53
2022/11/27 12:09:49;;;;;;;1.10;0.90;;;;;;;;;;1719772;80;21042;-52
2022/11/27 12:12:26;;;;;;;1.13;1.03;;;;;;;;;;1721594;80;21104;-50
2022/11/27 12:15:07;;;;;;;1.07;0.90;;;;;;;;;;1721002;80;21535;-52
2022/11/27 12:18:03;;;;;;;2.00;1.30;;;;;;;;;;1720832;80;23390;-53
2022/11/27 12:20:48;;;;;;;1.40;1.17;;;;;;;;;;1721891;80;21147;-52
2022/11/27 12:23:28;;;;;;;1.40;1.20;;;;;;;;;;1724246;80;21503;-52
2022/11/27 12:26:04;;;;;;;1.90;1.70;;;;;;;;;;1724335;80;21073;-52
2022/11/27 12:31:23;;;;;;;1.70;1.43;;;;;;;;;;1865363;75;25448;-52
2022/11/27 12:36:07;;;;;;;1.83;1.63;;;;;;;;;;1790024;77;28140;-51
2022/11/27 12:39:05;;;;;;;1.33;1.23;;;;;;;;;;1797537;77;21103;-51
2022/11/27 12:41:51;;;;;;;1.80;1.20;;;;;;;;;;1796772;78;21846;-51
2022/11/27 12:44:47;;;;;;;1.67;1.37;;;;;;;;;;1798993;78;21185;-51
2022/11/27 12:47:20;;;;;;;2.40;1.83;;;;;;;;;;1801214;77;21185;-53
2022/11/27 12:49:49;;;;;;;1.53;1.43;;;;;;;;;;1799798;78;21084;-53
2022/11/27 12:52:18;;;;;;;1.97;1.53;;;;;;;;;;1797675;78;21032;-53
2022/11/27 12:54:54;;;;;;;2.17;1.40;;;;;;;;;;1804936;78;21830;-53
2022/11/27 12:57:30;;;;;;;1.80;1.50;;;;;;;;;;1796797;77;21045;-52
2022/11/27 12:59:57;;;;;;;1.97;1.50;;;;;;;;;;1797737;77;21523;-52
2022/11/27 13:02:30;;;;;;;2.23;1.27;;;;;;;;;;1801103;77;21492;-52
2022/11/27 13:05:00;;;;;;;3.07;1.47;;;;;;;;;;1798645;78;21045;-53
2022/11/27 13:07:38;;;;;;;2.73;1.80;;;;;;;;;;1796165;78;21781;-51
2022/11/27 13:10:11;;;;;;;1.30;1.20;;;;;;;;;;1800389;77;21022;-52
2022/11/27 13:12:44;;;;;;;2.37;1.67;;;;;;;;;;1802412;77;21574;-51
2022/11/27 13:15:29;;;;;;;2.63;2.00;;;;;;;;;;1798821;77;21564;-51
2022/11/27 13:18:05;;;;;;;2.10;1.67;;;;;;;;;;1799862;78;21060;-53
2022/11/27 13:20:34;;;;;;;2.23;2.00;;;;;;;;;;1790562;78;22211;-52
2022/11/27 13:23:00;;;;;;;2.53;1.93;;;;;;;;;;1773814;79;21092;-52
2022/11/27 13:25:26;;;;;;;2.30;2.10;;;;;;;;;;1777528;78;21342;-52
2022/11/27 13:27:52;;;;;;;5.40;2.33;;;;;;;;;;1777615;78;21106;-53
2022/11/27 13:30:23;;;;;;;2.50;1.60;;;;;;;;;;1779364;79;21033;-52
2022/11/27 13:32:55;;;;;;;2.50;1.77;;;;;;;;;;1775605;78;21305;-52
2022/11/27 13:35:41;;;;;;;1.50;1.40;;;;;;;;;;1763423;79;21261;-53
2022/11/27 13:38:14;;;;;;;1.43;1.27;;;;;;;;;;1761238;79;21195;-52
2022/11/27 13:40:48;;;;;;;2.33;1.30;;;;;;;;;;1754562;79;21084;-52
2022/11/27 13:43:35;;;;;;;1.50;1.27;;;;;;;;;;1755498;79;21752;-53
2022/11/27 13:46:11;;;;;;;2.10;1.20;;;;;;;;;;1755528;79;21841;-50
2022/11/27 13:48:40;;;;;;;2.00;1.20;;;;;;;;;;1761127;79;21081;-51
2022/11/27 13:51:07;;;;;;;2.17;1.23;;;;;;;;;;1739034;80;21446;-53
2022/11/27 13:53:37;;;;;;;1.93;1.10;;;;;;;;;;1723716;80;22324;-53
2022/11/27 13:56:04;;;;;;;1.10;0.90;;;;;;;;;;1754060;79;21030;-51
2022/11/27 13:58:35;;;;;;;1.20;0.97;;;;;;;;;;1737213;79;21774;-52
2022/11/27 14:03:25;;;;;;;2.20;1.30;;;;;;;;;;1853663;75;27376;-51
2022/11/27 14:05:51;;;;;;;1.57;1.00;;;;;;;;;;1820610;77;21520;-50
2022/11/27 14:08:24;;;;;;;2.03;1.30;;;;;;;;;;1815868;77;21962;-51
2022/11/27 14:11:11;;;;;;;2.63;1.40;;;;;;;;;;1813869;77;21021;-53
2022/11/27 14:13:39;;;;;;;1.23;1.03;;;;;;;;;;1815359;77;21489;-52
2022/11/27 14:16:30;;;;;;;1.83;1.10;;;;;;;;;;1813654;77;21232;-51
2022/11/27 14:18:58;;;;;;;2.50;1.10;;;;;;;;;;1816427;77;22046;-52
2022/11/27 14:21:41;;;;;;;1.40;1.10;;;;;;;;;;1807656;77;23611;-52
2022/11/27 14:24:26;;;;;;;1.30;0.90;;;;;;;;;;1798719;77;21426;-51
2022/11/27 14:26:53;;;;;;;3.42;1.40;;;;;;;;;;1803182;77;21324;-51
2022/11/27 14:29:20;;;;;;;1.30;1.10;;;;;;;;;;1799103;77;21115;-50
2022/11/27 14:31:55;;;;;;;1.10;1.00;;;;;;;;;;1798074;77;21119;-51
2022/11/27 14:34:32;;;;;;;1.40;0.90;;;;;;;;;;1804962;77;21941;-52
2022/11/27 14:36:58;;;;;;;1.20;1.00;;;;;;;;;;1802399;77;21388;-51
2022/11/27 14:39:30;;;;;;;1.40;1.07;;;;;;;;;;1804231;77;21584;-52
2022/11/27 14:42:00;;;;;;;1.53;1.43;;;;;;;;;;1797775;77;21096;-50
2022/11/27 14:44:26;;;;;;;1.30;1.00;;;;;;;;;;1800760;77;21538;-51
2022/11/27 14:46:52;;;;;;;1.87;1.07;;;;;;;;;;1801227;77;21771;-52
2022/11/27 14:49:19;;;;;;;1.10;0.90;;;;;;;;;;1803309;77;21151;-51
2022/11/27 14:51:45;;;;;;;1.93;0.90;;;;;;;;;;1807827;77;21501;-50
2022/11/27 14:54:14;;;;;;;0.90;0.80;;;;;;;;;;1756653;79;21098;-51
2022/11/27 14:56:41;;;;;;;1.40;0.80;;;;;;;;;;1776675;79;21194;-51
2022/11/27 14:59:12;;;;;;;1.20;0.73;;;;;;;;;;1735998;79;21909;-51
2022/11/27 15:01:39;;;;;;;1.97;0.87;;;;;;;;;;1726420;80;21171;-52
2022/11/27 15:10:20;;;;;;;1.50;0.73;;;;;;;;;;1659264;84;21115;-78
2022/11/27 15:12:47;;;;;;;1.10;0.80;;;;;;;;;;1658722;84;21951;-78
2022/11/27 15:15:16;;;;;;;1.43;1.00;;;;;;;;;;1659238;84;21104;-78
2022/11/27 15:17:44;;;;;;;1.53;0.93;;;;;;;;;;1656373;84;21734;-77
2022/11/27 15:20:13;;;;;;;1.80;1.00;;;;;;;;;;1659968;84;21556;-78
2022/11/27 15:22:51;;;;;;;1.40;0.97;;;;;;;;;;1655573;84;21076;-77